Time;durP1;ratioP1;P1;durP2;ratioP2;P2;SDS_P1;SDS_P2;PMS_P1;PMS_P2;Temp;Humidity;BMP_temperature;BMP_pressure;BME280_temperature;BME280_humidity;BME280_pressure;Samples;Min_cycle;Max_cycle;Signal;HPM_P1;HPM_P2
2022/03/17 00:00:53;;;;;;;36.70;20.38;;;13.40;99.90;;;;;;5052237;28;20182;-65
2022/03/17 00:03:19;;;;;;;31.35;18.15;;;13.40;99.90;;;;;;5053265;28;20182;-66
2022/03/17 00:05:45;;;;;;;34.85;18.77;;;13.50;99.90;;;;;;5022127;28;20187;-68
2022/03/17 00:08:11;;;;;;;31.98;18.40;;;13.60;99.90;;;;;;5053268;28;20229;-66
2022/03/17 00:10:37;;;;;;;37.55;20.48;;;13.40;99.90;;;;;;5048114;28;20565;-66
2022/03/17 00:13:03;;;;;;;32.03;17.88;;;13.40;99.90;;;;;;5034062;28;20190;-65
2022/03/17 00:15:29;;;;;;;38.88;20.15;;;13.40;99.90;;;;;;5033629;28;20191;-65
2022/03/17 00:17:55;;;;;;;39.33;20.60;;;13.60;99.90;;;;;;5033120;28;20666;-65
2022/03/17 00:20:22;;;;;;;38.30;20.33;;;13.50;99.90;;;;;;5033449;28;20557;-65
2022/03/17 00:22:48;;;;;;;34.22;20.08;;;13.50;99.90;;;;;;5039912;28;20243;-65
2022/03/17 00:25:13;;;;;;;39.28;18.33;;;13.50;99.90;;;;;;5040736;28;20631;-66
2022/03/17 00:27:39;;;;;;;42.67;20.55;;;13.50;99.90;;;;;;5034526;28;20269;-66
2022/03/17 00:30:06;;;;;;;37.50;21.33;;;13.50;99.90;;;;;;5045851;28;20235;-65
2022/03/17 00:32:32;;;;;;;40.85;21.08;;;13.50;99.90;;;;;;5036695;28;20649;-65
2022/03/17 00:37:42;;;;;;;39.92;20.63;;;13.50;99.90;;;;;;5036475;28;20202;-66
2022/03/17 00:40:08;;;;;;;40.75;22.58;;;13.40;99.90;;;;;;5034113;28;20191;-66
2022/03/17 00:42:34;;;;;;;41.20;22.45;;;13.30;99.90;;;;;;5034648;28;20187;-66
2022/03/17 00:44:59;;;;;;;40.28;22.30;;;13.40;99.90;;;;;;5034306;28;20209;-67
2022/03/17 00:47:25;;;;;;;42.85;21.85;;;13.50;99.90;;;;;;5041242;28;20646;-66
2022/03/17 00:49:50;;;;;;;40.72;21.70;;;13.50;99.90;;;;;;5035782;28;20191;-66
2022/03/17 00:52:20;;;;;;;41.97;22.25;;;13.60;99.90;;;;;;5046656;28;20220;-67
2022/03/17 00:54:45;;;;;;;45.53;22.60;;;13.60;99.90;;;;;;5031719;28;20198;-67
2022/03/17 00:57:12;;;;;;;39.10;21.77;;;13.50;99.90;;;;;;5034050;28;20190;-67
2022/03/17 00:59:38;;;;;;;39.33;21.10;;;13.50;99.90;;;;;;5016629;28;20187;-67
2022/03/17 01:02:04;;;;;;;41.45;21.30;;;13.60;99.90;;;;;;5032894;28;20198;-67
2022/03/17 01:04:30;;;;;;;36.90;21.05;;;13.60;99.90;;;;;;5034044;28;20189;-67
2022/03/17 01:06:56;;;;;;;32.72;20.98;;;13.50;99.90;;;;;;5033881;28;20308;-69
2022/03/17 01:09:22;;;;;;;39.97;21.35;;;13.50;99.90;;;;;;5032761;28;20264;-67
2022/03/17 01:11:47;;;;;;;36.65;21.25;;;13.50;99.90;;;;;;5045897;28;20585;-67
2022/03/17 01:14:13;;;;;;;37.90;23.40;;;13.50;99.90;;;;;;5032787;28;20701;-67
2022/03/17 01:16:40;;;;;;;39.42;21.55;;;13.40;99.90;;;;;;5036056;28;20187;-66
2022/03/17 01:19:06;;;;;;;39.70;21.90;;;13.60;99.90;;;;;;5047691;28;20201;-66
2022/03/17 01:21:32;;;;;;;34.58;20.05;;;13.70;99.90;;;;;;5033634;28;20174;-66
2022/03/17 01:23:57;;;;;;;35.75;20.98;;;13.70;99.90;;;;;;5032521;28;20646;-66
2022/03/17 01:26:23;;;;;;;40.92;22.15;;;13.80;99.90;;;;;;5031794;28;20187;-66
2022/03/17 01:28:49;;;;;;;35.97;20.58;;;13.70;99.90;;;;;;5034293;28;20182;-66
2022/03/17 01:31:15;;;;;;;31.35;19.50;;;13.60;99.90;;;;;;5050717;28;20182;-66
2022/03/17 01:33:41;;;;;;;36.03;19.83;;;13.60;99.90;;;;;;5032219;28;20215;-67
2022/03/17 01:36:06;;;;;;;23.63;16.60;;;13.60;99.90;;;;;;5031995;28;20611;-66
2022/03/17 01:38:33;;;;;;;23.58;14.52;;;13.40;99.90;;;;;;5032318;28;20704;-69
2022/03/17 01:40:59;;;;;;;21.33;13.52;;;13.30;99.90;;;;;;5039559;28;20291;-66
2022/03/17 01:43:25;;;;;;;20.63;13.30;;;13.30;99.90;;;;;;5044867;28;20527;-66
2022/03/17 01:45:54;;;;;;;29.88;15.07;;;13.20;99.90;;;;;;5032732;28;20193;-66
2022/03/17 01:48:21;;;;;;;32.92;15.00;;;12.90;99.90;;;;;;5050763;28;20650;-67
2022/03/17 01:50:51;;;;;;;29.17;17.20;;;12.30;99.90;;;;;;5031893;28;20182;-65
2022/03/17 01:53:17;;;;;;;30.15;17.23;;;11.80;99.90;;;;;;5024992;28;20651;-66
2022/03/17 01:55:43;;;;;;;25.23;15.48;;;11.60;99.90;;;;;;5033283;28;20198;-66
2022/03/17 01:58:10;;;;;;;25.50;15.50;;;11.50;99.90;;;;;;5031664;28;20256;-66
2022/03/17 02:00:37;;;;;;;29.38;16.23;;;11.30;99.90;;;;;;5031808;28;20194;-66
2022/03/17 02:03:03;;;;;;;27.40;16.53;;;11.30;99.90;;;;;;5031865;28;20193;-66
2022/03/17 02:05:29;;;;;;;34.67;18.40;;;11.20;99.90;;;;;;5033187;28;20174;-67
2022/03/17 02:07:55;;;;;;;27.50;17.70;;;11.20;99.90;;;;;;5038358;28;20222;-66
2022/03/17 02:10:22;;;;;;;27.03;14.97;;;11.00;99.90;;;;;;5051808;28;20244;-66
2022/03/17 02:15:33;;;;;;;31.23;16.77;;;10.90;99.90;;;;;;5031984;28;20218;-66
2022/03/17 02:18:06;;;;;;;28.77;16.87;;;10.90;99.90;;;;;;5039241;28;20194;-67
2022/03/17 02:20:33;;;;;;;30.37;16.00;;;10.90;99.90;;;;;;5050763;28;20232;-66
2022/03/17 02:25:57;;;;;;;23.10;14.50;;;10.80;99.90;;;;;;5037329;28;20285;-66
2022/03/17 02:28:24;;;;;;;27.77;16.80;;;10.90;99.90;;;;;;5051248;28;20289;-67
2022/03/17 02:30:50;;;;;;;25.07;15.50;;;10.70;99.90;;;;;;5052276;28;20186;-66
2022/03/17 02:33:16;;;;;;;29.93;16.57;;;10.70;99.90;;;;;;5042878;28;20583;-67
2022/03/17 02:35:43;;;;;;;33.43;16.63;;;10.70;99.90;;;;;;5036792;28;20186;-66
2022/03/17 02:38:14;;;;;;;26.27;15.60;;;10.80;99.90;;;;;;5045386;28;20658;-66
2022/03/17 02:40:42;;;;;;;29.47;14.60;;;10.80;99.90;;;;;;5039766;28;20186;-66
2022/03/17 02:43:09;;;;;;;27.43;16.47;;;10.90;99.90;;;;;;5036499;28;20655;-66
2022/03/17 02:45:36;;;;;;;27.27;15.73;;;10.90;99.90;;;;;;5034928;28;20610;-66
2022/03/17 02:48:03;;;;;;;27.53;16.30;;;11.00;99.90;;;;;;5034667;28;20582;-66
2022/03/17 02:50:29;;;;;;;28.33;17.23;;;11.00;99.90;;;;;;5036317;28;20566;-66
2022/03/17 02:52:54;;;;;;;30.10;17.13;;;10.90;99.90;;;;;;5035449;28;20222;-67
2022/03/17 02:55:20;;;;;;;29.53;16.87;;;10.90;99.90;;;;;;5030494;28;20190;-68
2022/03/17 02:57:46;;;;;;;32.97;16.47;;;10.80;99.90;;;;;;5046959;28;20190;-66
2022/03/17 03:00:13;;;;;;;30.40;17.37;;;10.80;99.90;;;;;;5035891;28;20198;-66
2022/03/17 03:02:39;;;;;;;30.47;18.27;;;10.80;99.90;;;;;;5036515;28;20198;-66
2022/03/17 03:05:06;;;;;;;24.77;16.40;;;10.90;99.90;;;;;;5036006;28;20193;-66
2022/03/17 03:07:33;;;;;;;29.47;16.70;;;11.00;99.90;;;;;;5035941;28;20222;-67
2022/03/17 03:09:58;;;;;;;27.87;16.93;;;11.00;99.90;;;;;;5035008;28;20194;-66
2022/03/17 03:12:24;;;;;;;27.37;16.70;;;11.00;99.90;;;;;;5034853;28;20194;-67
2022/03/17 03:14:50;;;;;;;23.40;14.73;;;10.90;99.90;;;;;;5054572;28;20194;-67
2022/03/17 03:17:16;;;;;;;28.03;16.43;;;11.00;99.90;;;;;;5036336;28;20195;-67
2022/03/17 03:19:42;;;;;;;25.77;15.37;;;10.90;99.90;;;;;;5045325;28;20269;-66
2022/03/17 03:22:09;;;;;;;24.83;14.47;;;10.80;99.90;;;;;;5051044;28;20265;-66
2022/03/17 03:24:38;;;;;;;24.13;15.33;;;10.70;99.90;;;;;;5042737;28;20190;-66
2022/03/17 03:27:05;;;;;;;28.23;15.77;;;10.70;99.90;;;;;;5048812;28;20324;-66
2022/03/17 03:29:31;;;;;;;25.40;15.00;;;10.80;99.90;;;;;;5035454;28;20229;-66
2022/03/17 03:32:03;;;;;;;22.40;13.20;;;10.70;99.90;;;;;;5023415;28;20590;-66
2022/03/17 03:34:31;;;;;;;24.07;13.53;;;10.60;99.90;;;;;;5034411;28;20193;-66
2022/03/17 03:39:41;;;;;;;23.30;16.60;;;10.70;99.90;;;;;;5035538;28;20620;-68
2022/03/17 03:42:08;;;;;;;22.77;14.60;;;10.70;99.90;;;;;;5049957;28;20186;-66
2022/03/17 03:44:35;;;;;;;20.10;12.43;;;10.70;99.90;;;;;;5052975;28;20190;-68
2022/03/17 03:47:00;;;;;;;23.27;13.37;;;10.70;99.90;;;;;;5033483;28;20753;-66
2022/03/17 03:49:26;;;;;;;27.03;12.33;;;10.60;99.90;;;;;;5048125;28;20193;-66
2022/03/17 03:51:52;;;;;;;20.97;11.93;;;10.40;99.90;;;;;;5035401;28;20175;-66
2022/03/17 03:54:17;;;;;;;19.83;11.90;;;10.50;99.90;;;;;;5033786;28;20179;-66
2022/03/17 03:56:52;;;;;;;21.83;12.93;;;10.60;99.90;;;;;;5034918;28;20213;-66
2022/03/17 03:59:23;;;;;;;20.27;11.50;;;10.60;99.90;;;;;;5035716;28;20181;-67
2022/03/17 04:01:56;;;;;;;19.80;11.93;;;10.50;99.90;;;;;;5055155;28;20197;-66
2022/03/17 04:04:24;;;;;;;20.57;11.17;;;10.40;99.90;;;;;;5036728;28;20186;-66
2022/03/17 04:06:54;;;;;;;23.17;12.47;;;10.40;99.90;;;;;;5049905;28;20222;-66
2022/03/17 04:09:23;;;;;;;32.93;12.10;;;10.60;99.90;;;;;;5053575;28;20182;-66
2022/03/17 04:11:49;;;;;;;18.00;11.00;;;10.70;99.90;;;;;;5034057;28;20708;-66
2022/03/17 04:14:16;;;;;;;24.20;11.63;;;10.60;99.90;;;;;;5038434;28;20675;-66
2022/03/17 04:16:42;;;;;;;19.43;11.87;;;10.70;99.90;;;;;;5034346;28;20253;-66
2022/03/17 04:19:12;;;;;;;22.13;12.43;;;10.60;99.90;;;;;;5052701;28;20526;-66
2022/03/17 04:21:39;;;;;;;23.50;12.03;;;10.70;99.90;;;;;;5034527;28;20187;-66
2022/03/17 04:24:05;;;;;;;16.90;10.40;;;10.70;99.90;;;;;;5034940;28;20186;-66
2022/03/17 04:26:30;;;;;;;20.43;11.83;;;10.60;99.90;;;;;;5034353;28;20552;-66
2022/03/17 04:28:57;;;;;;;23.00;12.37;;;10.50;99.90;;;;;;5034356;28;20194;-69
2022/03/17 04:31:23;;;;;;;17.40;11.53;;;10.40;99.90;;;;;;5051889;28;20192;-66
2022/03/17 04:33:49;;;;;;;20.50;11.73;;;10.30;99.90;;;;;;5032913;28;20179;-66
2022/03/17 04:36:15;;;;;;;20.50;12.63;;;10.20;99.90;;;;;;5016969;28;20648;-66
2022/03/17 04:38:42;;;;;;;18.23;12.10;;;10.30;99.90;;;;;;5034302;28;20191;-66
2022/03/17 04:41:09;;;;;;;19.57;12.23;;;10.40;99.90;;;;;;5027200;28;20190;-66
2022/03/17 04:43:36;;;;;;;20.10;12.13;;;10.30;99.90;;;;;;5044100;28;20178;-66
2022/03/17 04:46:02;;;;;;;19.37;11.87;;;10.30;99.90;;;;;;5039226;28;20684;-66
2022/03/17 04:48:28;;;;;;;24.47;11.60;;;10.20;99.90;;;;;;5048753;28;20218;-66
2022/03/17 04:50:54;;;;;;;20.90;12.43;;;10.30;99.90;;;;;;5033928;28;20619;-66
2022/03/17 04:53:32;;;;;;;20.87;11.50;;;10.40;99.90;;;;;;5033767;28;20222;-65
2022/03/17 04:56:08;;;;;;;19.30;11.03;;;10.30;99.90;;;;;;5038361;28;20186;-65
2022/03/17 04:58:36;;;;;;;19.87;10.87;;;10.30;99.90;;;;;;5051299;28;20752;-67
2022/03/17 05:01:03;;;;;;;28.00;12.73;;;10.30;99.90;;;;;;5045711;28;20253;-65
2022/03/17 05:03:29;;;;;;;23.50;11.87;;;10.30;99.90;;;;;;5032173;28;20225;-66
2022/03/17 05:05:55;;;;;;;30.60;12.37;;;10.20;99.90;;;;;;5050181;28;20651;-65
2022/03/17 05:08:21;;;;;;;21.73;10.00;;;10.20;99.90;;;;;;5024918;28;20228;-65
2022/03/17 05:10:47;;;;;;;21.40;10.83;;;10.20;99.90;;;;;;5032315;28;20197;-67
2022/03/17 05:13:15;;;;;;;22.60;11.03;;;10.20;99.90;;;;;;5048885;28;20182;-65
2022/03/17 05:15:41;;;;;;;14.67;9.30;;;10.20;99.90;;;;;;5048563;28;20526;-65
2022/03/17 05:18:07;;;;;;;13.67;10.47;;;10.30;99.90;;;;;;5033680;28;20186;-65
2022/03/17 05:20:37;;;;;;;17.23;8.47;;;10.30;99.90;;;;;;5032551;28;20195;-66
2022/03/17 05:23:08;;;;;;;16.97;9.33;;;10.40;99.90;;;;;;5033895;28;20515;-67
2022/03/17 05:25:34;;;;;;;16.73;8.70;;;10.30;99.90;;;;;;5044648;28;20207;-66
2022/03/17 05:28:00;;;;;;;16.83;9.03;;;10.30;99.90;;;;;;5047267;28;20219;-66
2022/03/17 05:30:27;;;;;;;14.60;9.77;;;10.10;99.90;;;;;;5032092;28;20684;-65
2022/03/17 05:32:53;;;;;;;14.80;9.10;;;10.20;99.90;;;;;;5015698;28;20187;-66
2022/03/17 05:35:19;;;;;;;15.60;8.60;;;10.20;99.90;;;;;;5032265;28;20182;-66
2022/03/17 05:37:45;;;;;;;13.10;9.10;;;10.30;99.90;;;;;;5032002;28;20546;-67
2022/03/17 05:40:17;;;;;;;16.20;9.40;;;10.30;99.90;;;;;;5031933;28;20190;-67
2022/03/17 05:42:45;;;;;;;15.27;9.07;;;10.30;99.90;;;;;;5040566;28;20261;-66
2022/03/17 05:45:12;;;;;;;14.90;9.10;;;10.20;99.90;;;;;;5041745;28;20259;-65
2022/03/17 05:47:42;;;;;;;22.70;10.27;;;10.10;99.90;;;;;;5040604;28;20272;-66
2022/03/17 05:50:12;;;;;;;20.53;9.47;;;10.20;99.90;;;;;;5031764;28;20195;-66
2022/03/17 05:52:38;;;;;;;16.43;9.30;;;10.30;99.90;;;;;;5033028;28;20190;-66
2022/03/17 05:55:05;;;;;;;14.20;8.80;;;10.30;99.90;;;;;;5031990;28;20297;-66
2022/03/17 05:57:34;;;;;;;22.20;8.70;;;10.20;99.90;;;;;;5032747;28;20191;-67
2022/03/17 05:59:59;;;;;;;18.70;8.50;;;10.20;99.90;;;;;;5031852;28;20186;-66
2022/03/17 06:02:25;;;;;;;17.67;9.17;;;10.30;99.90;;;;;;5048692;28;20190;-66
2022/03/17 06:04:51;;;;;;;18.67;9.67;;;10.30;99.90;;;;;;5035838;28;20178;-67
2022/03/17 06:07:17;;;;;;;21.60;9.33;;;10.20;99.90;;;;;;5036871;28;20297;-66
2022/03/17 06:09:42;;;;;;;17.77;8.93;;;10.10;99.90;;;;;;5031695;28;20183;-67
2022/03/17 06:12:09;;;;;;;21.77;11.27;;;10.00;99.90;;;;;;5048422;28;20591;-67
2022/03/17 06:14:35;;;;;;;17.23;10.40;;;10.00;99.90;;;;;;5040259;28;20221;-66
2022/03/17 06:17:01;;;;;;;18.63;9.50;;;10.10;99.90;;;;;;5031931;28;20203;-67
2022/03/17 06:19:26;;;;;;;14.97;8.70;;;10.10;99.90;;;;;;5048298;28;20183;-65
2022/03/17 06:21:52;;;;;;;19.33;9.83;;;10.30;99.90;;;;;;5031542;28;20185;-67
2022/03/17 06:24:18;;;;;;;24.53;9.50;;;10.20;99.90;;;;;;5039656;28;20654;-67
2022/03/17 06:26:44;;;;;;;17.83;9.33;;;10.00;99.90;;;;;;5046537;28;20268;-67
2022/03/17 06:29:09;;;;;;;17.20;8.97;;;9.90;99.90;;;;;;5032995;28;20662;-66
2022/03/17 06:31:37;;;;;;;16.90;9.67;;;9.80;99.90;;;;;;5046577;28;20178;-66
2022/03/17 06:34:03;;;;;;;16.60;10.40;;;9.70;99.90;;;;;;5051552;28;20178;-66
2022/03/17 06:36:29;;;;;;;16.57;9.00;;;9.80;99.90;;;;;;5032821;28;20544;-68
2022/03/17 06:38:54;;;;;;;16.70;8.70;;;9.90;99.90;;;;;;5031297;28;20244;-65
2022/03/17 06:41:21;;;;;;;15.70;8.57;;;9.90;99.90;;;;;;5029244;28;20580;-65
2022/03/17 06:43:46;;;;;;;19.80;8.27;;;9.90;99.90;;;;;;5031795;28;20589;-65
2022/03/17 06:46:12;;;;;;;17.07;8.70;;;10.00;99.90;;;;;;5014773;28;20337;-65
2022/03/17 06:48:38;;;;;;;10.97;6.67;;;9.90;99.90;;;;;;5032332;28;20229;-65
2022/03/17 06:51:03;;;;;;;14.30;6.77;;;9.70;99.90;;;;;;5031211;28;20190;-66
2022/03/17 06:53:29;;;;;;;12.90;6.60;;;9.90;99.90;;;;;;5031312;28;20190;-67
2022/03/17 06:55:55;;;;;;;14.20;6.63;;;9.90;99.90;;;;;;5030944;28;20190;-67
2022/03/17 06:58:20;;;;;;;16.17;6.83;;;9.90;99.90;;;;;;5031391;28;20198;-67
2022/03/17 07:00:46;;;;;;;11.50;6.23;;;9.90;99.90;;;;;;5031608;28;20191;-67
2022/03/17 07:03:11;;;;;;;11.10;6.63;;;10.00;99.90;;;;;;5031104;28;20693;-66
2022/03/17 07:05:37;;;;;;;10.43;6.60;;;10.00;99.90;;;;;;5030802;28;20289;-66
2022/03/17 07:08:05;;;;;;;10.03;6.57;;;10.00;99.90;;;;;;5032464;28;20215;-65
2022/03/17 07:10:31;;;;;;;12.10;7.37;;;10.00;99.90;;;;;;5039788;28;20186;-66
2022/03/17 07:12:57;;;;;;;13.73;7.17;;;10.00;99.90;;;;;;5047089;28;20244;-67
2022/03/17 07:15:23;;;;;;;14.77;7.07;;;10.00;99.90;;;;;;5051173;28;20226;-65
2022/03/17 07:17:48;;;;;;;11.83;6.67;;;10.10;99.90;;;;;;5041599;28;20205;-66
2022/03/17 07:20:17;;;;;;;8.67;5.77;;;10.00;99.90;;;;;;5038279;28;20598;-66
2022/03/17 07:22:44;;;;;;;13.10;5.63;;;10.00;99.90;;;;;;5035789;28;20547;-66
2022/03/17 07:25:11;;;;;;;14.10;6.03;;;10.10;99.90;;;;;;5042354;28;20707;-66
2022/03/17 07:27:44;;;;;;;8.27;5.60;;;10.20;99.90;;;;;;5035342;28;20547;-66
2022/03/17 07:30:13;;;;;;;10.70;5.57;;;10.30;99.90;;;;;;5035425;28;20213;-66
2022/03/17 07:32:39;;;;;;;12.17;5.23;;;10.30;99.90;;;;;;5034075;28;20183;-66
2022/03/17 07:35:06;;;;;;;8.73;5.80;;;10.50;99.90;;;;;;5034005;28;20666;-66
2022/03/17 07:37:32;;;;;;;17.67;6.43;;;10.50;99.90;;;;;;5035143;28;20190;-66
2022/03/17 07:39:57;;;;;;;9.67;5.77;;;10.50;99.90;;;;;;5035138;28;20189;-66
2022/03/17 07:42:23;;;;;;;9.93;6.30;;;10.20;99.90;;;;;;5025434;28;20548;-67
2022/03/17 07:44:49;;;;;;;18.27;5.60;;;10.10;99.90;;;;;;5028789;28;20196;-66
2022/03/17 07:47:14;;;;;;;12.00;5.03;;;10.20;99.90;;;;;;5054203;28;20210;-66
2022/03/17 07:49:40;;;;;;;13.20;5.80;;;10.10;99.90;;;;;;5051773;28;20196;-66
2022/03/17 07:52:07;;;;;;;15.60;5.70;;;10.00;99.90;;;;;;5034968;28;20182;-66
2022/03/17 07:54:33;;;;;;;10.33;5.03;;;9.90;99.90;;;;;;5033851;28;20214;-66
2022/03/17 07:57:01;;;;;;;10.87;6.27;;;10.00;99.90;;;;;;5050586;28;20190;-67
2022/03/17 07:59:32;;;;;;;14.90;5.73;;;10.00;99.90;;;;;;5034090;28;20191;-66
2022/03/17 08:01:58;;;;;;;16.33;6.50;;;10.10;99.90;;;;;;5034826;28;20233;-66
2022/03/17 08:04:27;;;;;;;9.97;5.23;;;10.20;99.90;;;;;;5050174;28;20183;-66
2022/03/17 08:06:53;;;;;;;7.63;4.70;;;10.20;99.90;;;;;;5034848;28;20225;-65
2022/03/17 08:09:21;;;;;;;14.80;5.60;;;10.20;99.90;;;;;;5035193;28;20225;-66
2022/03/17 08:11:48;;;;;;;10.67;5.50;;;10.20;99.90;;;;;;5033520;28;20290;-66
2022/03/17 08:14:16;;;;;;;6.63;5.80;;;10.30;99.90;;;;;;5043575;28;20213;-66
2022/03/17 08:16:44;;;;;;;10.90;5.00;;;10.20;99.90;;;;;;5051667;28;20193;-65
2022/03/17 08:19:11;;;;;;;10.23;4.50;;;10.30;99.90;;;;;;5051095;28;20186;-66
2022/03/17 08:21:37;;;;;;;12.07;5.63;;;10.30;99.90;;;;;;5032944;28;20183;-66
2022/03/17 08:24:03;;;;;;;9.80;5.27;;;10.10;99.90;;;;;;5045976;28;20189;-67
2022/03/17 08:26:29;;;;;;;7.67;4.53;;;10.10;99.90;;;;;;5036916;28;20190;-65
2022/03/17 08:28:55;;;;;;;15.13;5.47;;;10.00;99.90;;;;;;5049651;28;20232;-66
2022/03/17 08:31:20;;;;;;;16.47;5.57;;;10.10;99.90;;;;;;5033094;28;20590;-65
2022/03/17 08:33:46;;;;;;;8.40;4.40;;;10.00;99.90;;;;;;5049226;28;20639;-66
2022/03/17 08:36:11;;;;;;;5.80;4.10;;;10.00;99.90;;;;;;5032193;28;20213;-66
2022/03/17 08:38:37;;;;;;;6.63;4.03;;;10.10;99.90;;;;;;5033467;28;20341;-66
2022/03/17 08:41:03;;;;;;;4.70;4.03;;;10.20;99.90;;;;;;5032838;28;20182;-66
2022/03/17 08:43:29;;;;;;;6.83;4.40;;;10.20;99.90;;;;;;5039675;28;20658;-65
2022/03/17 08:51:31;;;;;;;7.00;3.50;;;10.10;99.90;;;;;;5034134;28;20205;-65
2022/03/17 08:53:57;;;;;;;7.87;3.00;;;10.30;99.90;;;;;;5032527;28;20605;-65
2022/03/17 08:56:23;;;;;;;6.97;3.93;;;10.30;99.90;;;;;;5038596;28;20181;-66
2022/03/17 08:58:48;;;;;;;3.83;3.43;;;10.40;99.90;;;;;;5037552;28;20635;-67
2022/03/17 09:01:14;;;;;;;3.67;3.37;;;10.40;99.90;;;;;;5032392;28;20191;-67
2022/03/17 09:03:40;;;;;;;7.70;3.17;;;10.40;99.90;;;;;;5037553;28;20206;-67
2022/03/17 09:06:05;;;;;;;5.77;3.03;;;10.50;99.90;;;;;;5033734;28;20191;-68
2022/03/17 09:08:31;;;;;;;5.43;2.57;;;10.60;99.90;;;;;;5047505;28;20214;-67
2022/03/17 09:10:57;;;;;;;3.00;2.70;;;10.60;99.90;;;;;;5046772;28;20198;-68
2022/03/17 09:13:28;;;;;;;4.47;3.50;;;10.70;99.90;;;;;;5048679;28;20193;-66
2022/03/17 09:15:55;;;;;;;5.17;2.87;;;10.80;99.90;;;;;;5053203;28;20190;-66
2022/03/17 09:18:22;;;;;;;3.70;2.03;;;11.00;99.90;;;;;;5042112;28;20204;-66
2022/03/17 09:20:48;;;;;;;3.97;1.77;;;10.60;99.90;;;;;;5035339;28;20187;-66
2022/03/17 09:23:14;;;;;;;1.93;1.80;;;10.40;99.90;;;;;;5046239;28;20678;-66
2022/03/17 09:25:40;;;;;;;4.00;2.47;;;10.40;99.90;;;;;;5051102;28;20213;-68
2022/03/17 09:28:06;;;;;;;2.43;2.03;;;10.60;99.90;;;;;;5036063;28;20614;-67
2022/03/17 09:30:32;;;;;;;4.63;1.97;;;10.50;99.90;;;;;;5033214;28;20666;-66
2022/03/17 09:32:59;;;;;;;2.87;1.90;;;10.60;99.90;;;;;;5031970;28;20631;-73
2022/03/17 09:35:25;;;;;;;3.57;2.17;;;10.70;99.90;;;;;;5031978;28;20193;-68
2022/03/17 09:37:51;;;;;;;2.70;2.50;;;10.70;99.90;;;;;;5031882;28;20202;-67
2022/03/17 09:40:17;;;;;;;3.77;2.73;;;10.40;99.90;;;;;;5031570;28;20198;-68
2022/03/17 09:42:43;;;;;;;4.03;2.37;;;10.40;99.90;;;;;;5031936;28;20183;-67
2022/03/17 09:45:11;;;;;;;3.13;2.40;;;10.20;99.90;;;;;;5044951;28;20604;-69
2022/03/17 09:47:39;;;;;;;7.67;2.53;;;10.30;99.90;;;;;;5040973;28;20229;-68
2022/03/17 09:50:07;;;;;;;3.27;2.73;;;10.40;99.90;;;;;;5031562;28;20183;-68
2022/03/17 09:52:37;;;;;;;4.37;2.87;;;10.40;99.90;;;;;;5051164;28;20178;-67
2022/03/17 09:55:04;;;;;;;3.33;2.33;;;10.50;99.90;;;;;;5034938;28;20185;-67
2022/03/17 09:57:31;;;;;;;7.43;2.73;;;10.60;99.90;;;;;;5047438;28;20548;-67
2022/03/17 09:59:58;;;;;;;4.07;2.77;;;10.80;99.90;;;;;;5022847;28;20237;-67
2022/03/17 10:02:25;;;;;;;8.63;3.27;;;10.90;99.90;;;;;;5048099;28;20567;-66
2022/03/17 10:04:51;;;;;;;4.57;3.13;;;11.00;99.90;;;;;;5041281;28;20182;-66
2022/03/17 10:07:19;;;;;;;4.38;2.80;;;11.20;99.90;;;;;;5035069;28;21499;-66
2022/03/17 10:09:46;;;;;;;2.70;2.50;;;11.50;99.90;;;;;;5032572;28;20179;-65
2022/03/17 10:12:16;;;;;;;4.80;2.88;;;11.50;99.90;;;;;;5033083;28;20273;-65
2022/03/17 10:14:47;;;;;;;4.90;2.55;;;11.60;99.90;;;;;;5031768;28;20174;-66
2022/03/17 10:17:36;;;;;;;8.45;3.50;;;11.50;99.90;;;;;;5032597;28;20609;-65
2022/03/17 10:20:28;;;;;;;5.20;2.70;;;11.70;99.90;;;;;;5032427;28;20544;-64
2022/03/17 10:23:03;;;;;;;5.70;4.20;;;11.50;99.90;;;;;;5033245;28;20184;-64
2022/03/17 10:25:30;;;;;;;7.38;6.25;;;11.50;99.90;;;;;;5047633;28;20185;-65
2022/03/17 10:27:57;;;;;;;8.93;5.57;;;11.40;99.90;;;;;;5032541;28;20203;-66
2022/03/17 10:30:24;;;;;;;7.22;4.72;;;11.50;99.90;;;;;;5032371;28;20659;-67
2022/03/17 10:32:58;;;;;;;12.38;5.72;;;11.80;99.90;;;;;;5042877;28;20182;-66
2022/03/17 10:35:35;;;;;;;9.50;6.05;;;12.00;99.90;;;;;;5032995;28;20240;-67
2022/03/17 10:38:16;;;;;;;9.20;5.65;;;12.00;99.90;;;;;;5035898;28;20182;-65
2022/03/17 10:40:43;;;;;;;29.60;7.85;;;11.70;99.90;;;;;;5041035;28;20178;-67
2022/03/17 10:43:25;;;;;;;10.10;5.63;;;11.60;99.90;;;;;;5036284;28;20187;-67
2022/03/17 10:46:12;;;;;;;7.47;4.80;;;11.90;99.90;;;;;;5032251;28;20186;-67
2022/03/17 10:48:53;;;;;;;10.27;4.82;;;12.00;99.90;;;;;;5045682;28;20608;-67
2022/03/17 10:51:33;;;;;;;13.60;5.88;;;11.90;99.90;;;;;;5036235;28;20175;-66
2022/03/17 10:54:11;;;;;;;7.38;5.35;;;11.90;99.90;;;;;;5036331;28;20194;-67
2022/03/17 10:56:39;;;;;;;8.55;5.07;;;11.90;99.90;;;;;;5036545;28;20636;-67
2022/03/17 10:59:07;;;;;;;10.23;5.47;;;11.80;99.90;;;;;;5045758;28;20178;-68
2022/03/17 11:01:39;;;;;;;4.43;4.03;;;12.00;99.90;;;;;;5048195;28;20245;-68
2022/03/17 11:04:06;;;;;;;6.80;4.68;;;12.20;99.90;;;;;;5041547;28;20179;-67
2022/03/17 11:06:33;;;;;;;4.57;4.03;;;11.90;99.90;;;;;;5032918;28;20694;-67
2022/03/17 11:09:01;;;;;;;7.22;4.13;;;11.90;99.90;;;;;;5033770;28;20222;-67
2022/03/17 11:11:28;;;;;;;4.22;3.83;;;12.20;99.90;;;;;;5051190;28;20639;-66
2022/03/17 11:13:56;;;;;;;4.20;3.72;;;12.20;99.90;;;;;;5017954;28;20598;-67
2022/03/17 11:16:29;;;;;;;3.45;3.15;;;12.40;99.90;;;;;;5034124;28;20198;-65
2022/03/17 11:18:56;;;;;;;9.82;3.55;;;12.40;99.90;;;;;;5050663;28;20186;-65
2022/03/17 11:21:30;;;;;;;12.52;5.72;;;12.60;99.90;;;;;;5050937;28;20186;-66
2022/03/17 11:24:05;;;;;;;6.88;5.05;;;12.60;99.90;;;;;;5034570;28;20209;-65
2022/03/17 11:26:37;;;;;;;11.82;5.05;;;12.70;99.90;;;;;;5034235;28;20201;-66
2022/03/17 11:29:11;;;;;;;10.88;4.13;;;12.60;99.90;;;;;;5035758;28;20201;-66
2022/03/17 11:32:09;;;;;;;8.25;3.60;;;12.60;99.90;;;;;;5050968;28;20184;-66
2022/03/17 11:34:41;;;;;;;10.10;3.58;;;12.70;99.90;;;;;;5036462;28;20229;-66
2022/03/17 11:37:14;;;;;;;7.43;4.32;;;12.60;99.90;;;;;;5045647;28;20312;-65
2022/03/17 11:39:53;;;;;;;6.38;3.33;;;12.70;99.90;;;;;;5034126;28;20194;-67
2022/03/17 11:42:56;;;;;;;13.98;4.13;;;12.60;99.90;;;;;;5035777;28;20185;-66
2022/03/17 11:45:22;;;;;;;3.47;3.08;;;12.50;99.90;;;;;;5049919;28;20193;-65
2022/03/17 11:47:50;;;;;;;5.93;5.38;;;12.40;99.90;;;;;;5035523;28;20223;-66
2022/03/17 11:50:40;;;;;;;6.13;3.75;;;12.30;99.90;;;;;;5035945;28;20183;-65
2022/03/17 11:53:12;;;;;;;6.18;4.18;;;12.40;99.90;;;;;;5050691;28;20190;-66
2022/03/17 11:55:54;;;;;;;7.28;5.10;;;12.40;99.90;;;;;;5052907;28;20600;-66
2022/03/17 11:58:37;;;;;;;9.85;7.00;;;12.60;99.90;;;;;;5045362;28;20194;-66
2022/03/17 12:01:11;;;;;;;13.48;4.65;;;13.00;99.90;;;;;;5035461;28;20178;-66
2022/03/17 12:03:51;;;;;;;12.25;4.97;;;12.70;99.90;;;;;;5037547;28;20185;-66
2022/03/17 12:06:32;;;;;;;8.70;4.60;;;12.60;99.90;;;;;;5047785;28;20538;-66
2022/03/17 12:09:01;;;;;;;5.63;4.00;;;12.60;99.90;;;;;;5034680;28;20211;-65
2022/03/17 12:11:31;;;;;;;13.07;4.90;;;12.50;99.90;;;;;;5045786;28;20662;-66
2022/03/17 12:14:19;;;;;;;6.03;3.92;;;12.60;99.90;;;;;;5038327;28;20265;-66
2022/03/17 12:16:49;;;;;;;10.13;3.95;;;12.70;99.90;;;;;;5033000;28;20190;-66
2022/03/17 12:19:48;;;;;;;7.05;4.43;;;12.90;99.90;;;;;;5034780;28;20634;-66
2022/03/17 12:22:19;;;;;;;6.95;3.97;;;13.20;99.90;;;;;;5045275;28;20187;-66
2022/03/17 12:24:59;;;;;;;15.63;5.43;;;13.20;99.90;;;;;;5034748;28;20270;-66
2022/03/17 12:27:30;;;;;;;8.25;4.63;;;13.30;99.90;;;;;;5034364;28;20229;-67
2022/03/17 12:30:17;;;;;;;5.40;4.65;;;13.30;99.90;;;;;;5034780;28;20191;-66
2022/03/17 12:32:46;;;;;;;7.20;4.88;;;13.30;99.90;;;;;;5034507;28;20222;-68
2022/03/17 12:35:12;;;;;;;12.48;5.25;;;13.40;99.90;;;;;;5044958;28;20182;-66
2022/03/17 12:37:41;;;;;;;6.45;4.63;;;13.20;99.90;;;;;;5044643;28;20273;-67
2022/03/17 12:40:28;;;;;;;6.55;4.72;;;13.30;99.90;;;;;;5035504;28;20650;-67
2022/03/17 12:42:54;;;;;;;4.35;3.63;;;13.30;99.90;;;;;;5032460;28;20214;-67
2022/03/17 12:45:22;;;;;;;4.85;4.10;;;13.40;99.90;;;;;;5033950;28;20523;-67
2022/03/17 12:47:56;;;;;;;5.20;4.32;;;13.60;99.90;;;;;;5033741;28;20349;-67
2022/03/17 12:50:23;;;;;;;6.53;3.95;;;13.60;99.90;;;;;;5032842;28;20205;-67
2022/03/17 12:52:50;;;;;;;4.95;3.50;;;13.60;99.90;;;;;;5023524;28;20193;-67
2022/03/17 12:55:21;;;;;;;4.45;3.97;;;13.50;99.90;;;;;;5034904;28;20270;-67
2022/03/17 12:57:47;;;;;;;8.40;4.18;;;13.50;99.90;;;;;;5033949;28;20191;-68